Time;durP1;ratioP1;P1;durP2;ratioP2;P2;SDS_P1;SDS_P2;PMS_P1;PMS_P2;Temp;Humidity;BMP_temperature;BMP_pressure;BME280_temperature;BME280_humidity;BME280_pressure;Samples;Min_cycle;Max_cycle;Signal;HPM_P1;HPM_P2
2021/01/29 00:00:15;;;;;;;15.02;8.57;;;;;;;;;;4217193;33;20117;-84
2021/01/29 00:02:44;;;;;;;11.50;6.93;;;;;;;;;;4217652;33;20066;-84
2021/01/29 00:05:14;;;;;;;15.32;6.80;;;;;;;;;;4224510;33;20384;-84
2021/01/29 00:07:43;;;;;;;13.98;6.32;;;;;;;;;;4225173;34;20074;-84
2021/01/29 00:10:12;;;;;;;12.43;6.05;;;;;;;;;;4224144;34;20086;-84
2021/01/29 00:12:40;;;;;;;15.02;5.90;;;;;;;;;;4216445;34;20071;-84
2021/01/29 00:15:10;;;;;;;15.18;5.43;;;;;;;;;;4222805;34;20106;-84
2021/01/29 00:17:39;;;;;;;9.23;5.05;;;;;;;;;;4223496;33;20084;-84
2021/01/29 00:20:10;;;;;;;8.80;4.55;;;;;;;;;;4220270;34;20081;-84
2021/01/29 00:22:39;;;;;;;9.40;4.93;;;;;;;;;;4204144;34;20122;-84
2021/01/29 00:25:09;;;;;;;12.60;5.10;;;;;;;;;;4206766;34;20067;-84
2021/01/29 00:27:38;;;;;;;14.55;4.90;;;;;;;;;;4222588;34;20058;-84
2021/01/29 00:30:07;;;;;;;10.20;4.35;;;;;;;;;;4211455;34;20439;-84
2021/01/29 00:32:35;;;;;;;8.90;4.30;;;;;;;;;;4199450;34;20122;-84
2021/01/29 00:35:04;;;;;;;7.75;3.67;;;;;;;;;;4206873;34;20055;-85
2021/01/29 00:37:32;;;;;;;11.57;4.18;;;;;;;;;;4196665;34;20794;-84
2021/01/29 00:40:00;;;;;;;7.43;3.67;;;;;;;;;;4206838;33;20390;-84
2021/01/29 00:42:29;;;;;;;7.15;3.72;;;;;;;;;;4207284;34;20111;-84
2021/01/29 00:44:57;;;;;;;7.12;3.65;;;;;;;;;;4208524;34;20085;-84
2021/01/29 00:47:25;;;;;;;7.60;3.60;;;;;;;;;;4204851;34;20114;-84
2021/01/29 00:49:54;;;;;;;9.23;3.72;;;;;;;;;;4209742;34;20031;-84
2021/01/29 00:52:22;;;;;;;8.45;3.08;;;;;;;;;;4205482;34;20131;-84
2021/01/29 00:54:50;;;;;;;9.02;3.30;;;;;;;;;;4208918;34;20119;-84
2021/01/29 00:57:19;;;;;;;9.75;3.35;;;;;;;;;;4210079;34;20085;-84
2021/01/29 00:59:49;;;;;;;5.05;3.12;;;;;;;;;;4217836;34;20116;-84
2021/01/29 01:02:19;;;;;;;5.95;2.80;;;;;;;;;;4215752;34;20082;-84
2021/01/29 01:04:47;;;;;;;5.25;2.95;;;;;;;;;;4203730;34;20114;-84
2021/01/29 01:07:16;;;;;;;7.95;3.10;;;;;;;;;;4199189;34;20122;-84
2021/01/29 01:09:50;;;;;;;7.35;2.53;;;;;;;;;;4209226;34;20118;-84
2021/01/29 01:12:21;;;;;;;4.32;2.30;;;;;;;;;;4206684;34;20070;-84
2021/01/29 01:14:51;;;;;;;6.40;2.10;;;;;;;;;;4219824;34;20407;-84
2021/01/29 01:17:21;;;;;;;10.45;2.65;;;;;;;;;;4209470;34;20101;-84
2021/01/29 01:19:51;;;;;;;5.25;1.85;;;;;;;;;;4218349;34;20125;-84
2021/01/29 01:22:21;;;;;;;7.43;1.90;;;;;;;;;;4215064;34;20110;-84
2021/01/29 01:24:50;;;;;;;6.97;2.00;;;;;;;;;;4204487;34;20063;-84
2021/01/29 01:27:20;;;;;;;5.72;1.98;;;;;;;;;;4209191;34;20083;-84
2021/01/29 01:29:50;;;;;;;5.05;1.90;;;;;;;;;;4211283;34;20090;-84
2021/01/29 01:32:18;;;;;;;8.15;2.00;;;;;;;;;;4201143;34;20440;-85
2021/01/29 01:34:50;;;;;;;4.18;1.73;;;;;;;;;;4219724;34;20121;-84
2021/01/29 01:37:19;;;;;;;6.20;1.60;;;;;;;;;;4210121;34;20119;-84
2021/01/29 01:39:54;;;;;;;6.78;1.60;;;;;;;;;;4196830;34;20067;-84
2021/01/29 01:42:22;;;;;;;3.92;2.00;;;;;;;;;;4209948;34;20102;-84
2021/01/29 01:44:50;;;;;;;4.35;1.70;;;;;;;;;;4207684;34;20568;-84
2021/01/29 01:47:26;;;;;;;5.28;1.70;;;;;;;;;;4209456;34;20116;-83
2021/01/29 01:50:02;;;;;;;6.85;1.80;;;;;;;;;;4209967;34;20110;-84
2021/01/29 01:52:33;;;;;;;6.78;1.92;;;;;;;;;;4204436;34;20102;-84
2021/01/29 01:55:06;;;;;;;5.05;2.08;;;;;;;;;;4217911;34;20066;-84
2021/01/29 01:57:38;;;;;;;7.20;1.60;;;;;;;;;;4218891;34;20310;-84
2021/01/29 02:00:09;;;;;;;6.35;1.80;;;;;;;;;;4213730;34;20568;-84
2021/01/29 02:02:44;;;;;;;4.07;1.60;;;;;;;;;;4205905;34;20499;-84
2021/01/29 02:05:23;;;;;;;5.50;1.80;;;;;;;;;;4214855;34;20539;-84
2021/01/29 02:07:59;;;;;;;4.43;1.90;;;;;;;;;;4219081;34;20462;-84
2021/01/29 02:10:31;;;;;;;3.83;1.80;;;;;;;;;;4198812;34;20094;-84
2021/01/29 02:13:00;;;;;;;3.62;1.77;;;;;;;;;;4210815;34;20047;-84
2021/01/29 02:15:31;;;;;;;4.28;1.70;;;;;;;;;;4212148;34;20078;-84
2021/01/29 02:18:12;;;;;;;10.23;1.67;;;;;;;;;;4199962;34;20120;-84
2021/01/29 02:20:47;;;;;;;6.47;1.90;;;;;;;;;;4215680;33;20167;-84
2021/01/29 02:23:24;;;;;;;7.28;2.00;;;;;;;;;;4219803;33;20510;-84
2021/01/29 02:25:57;;;;;;;6.22;1.80;;;;;;;;;;4227734;33;20138;-84
2021/01/29 02:28:41;;;;;;;4.68;1.73;;;;;;;;;;4223372;34;20054;-84
2021/01/29 02:31:31;;;;;;;6.68;1.70;;;;;;;;;;4220493;33;20121;-84
2021/01/29 02:34:29;;;;;;;4.30;1.80;;;;;;;;;;4212208;33;20153;-84
2021/01/29 02:37:30;;;;;;;4.45;1.98;;;;;;;;;;4210674;33;20106;-84
2021/01/29 02:40:09;;;;;;;6.50;1.58;;;;;;;;;;4223287;33;20109;-85
2021/01/29 02:42:41;;;;;;;3.97;1.77;;;;;;;;;;4219726;33;20138;-84
2021/01/29 02:45:18;;;;;;;9.23;2.50;;;;;;;;;;4221601;33;20089;-83
2021/01/29 02:48:01;;;;;;;34.17;9.77;;;;;;;;;;4219608;33;20102;-84
2021/01/29 02:50:43;;;;;;;63.25;15.15;;;;;;;;;;4212038;33;20130;-83
2021/01/29 02:53:21;;;;;;;72.80;18.65;;;;;;;;;;4207360;33;20089;-83
2021/01/29 02:56:06;;;;;;;56.42;16.98;;;;;;;;;;4223128;33;20134;-84
2021/01/29 02:58:40;;;;;;;62.00;17.08;;;;;;;;;;4224447;33;20425;-84
2021/01/29 03:01:29;;;;;;;49.95;14.77;;;;;;;;;;4215240;34;20102;-84
2021/01/29 03:04:06;;;;;;;54.45;16.48;;;;;;;;;;4219069;33;20541;-84
2021/01/29 03:06:47;;;;;;;51.95;16.55;;;;;;;;;;4215659;34;20089;-84
2021/01/29 03:09:26;;;;;;;65.57;18.85;;;;;;;;;;4219123;34;20131;-85
2021/01/29 07:24:05;;;;;;;7.72;2.85;;;13.10;99.90;;;;;;4861332;28;20081;-87
2021/01/29 07:27:05;;;;;;;12.88;5.12;;;13.30;99.90;;;;;;4196286;34;20186;-86
2021/01/29 07:29:58;;;;;;;12.98;3.95;;;14.00;99.90;;;;;;4198900;34;20086;-87
2021/01/29 07:32:47;;;;;;;5.18;2.65;;;13.90;99.90;;;;;;4206363;33;20502;-87
2021/01/29 07:35:22;;;;;;;5.12;2.50;;;;;;;;;;4205801;34;20098;-88
2021/01/29 07:38:06;;;;;;;6.45;2.50;;;;;;;;;;4212969;34;20063;-87
2021/01/29 07:40:53;;;;;;;4.37;2.08;;;;;;;;;;4192866;34;20058;-91
2021/01/29 07:43:41;;;;;;;4.68;1.90;;;;;;;;;;4198829;34;20228;-90
2021/01/29 07:46:32;;;;;;;3.97;1.90;;;14.60;92.80;;;;;;4172678;34;20153;-88
2021/01/29 07:49:29;;;;;;;5.72;1.60;;;15.00;91.10;;;;;;4172247;34;20457;-90
2021/01/29 07:52:42;;;;;;;5.55;1.77;;;15.20;87.80;;;;;;4184763;34;20123;-89
2021/01/29 07:55:20;;;;;;;4.90;1.50;;;15.60;84.60;;;;;;4209920;34;20086;-87
2021/01/29 07:57:54;;;;;;;5.60;1.80;;;16.10;80.90;;;;;;4201168;34;20091;-88
2021/01/29 08:00:26;;;;;;;3.42;1.70;;;;;;;;;;4189515;34;20059;-86
2021/01/29 08:03:13;;;;;;;2.92;1.60;;;16.70;79.60;;;;;;4193704;33;20090;-87
2021/01/29 08:05:58;;;;;;;7.00;2.00;;;17.10;80.00;;;;;;4210826;33;20465;-89
2021/01/29 08:08:37;;;;;;;7.25;2.00;;;17.40;80.90;;;;;;4207516;33;20559;-87
2021/01/29 08:11:09;;;;;;;2.87;1.65;;;17.80;81.30;;;;;;4196277;34;20062;-88
2021/01/29 08:13:59;;;;;;;4.62;2.25;;;17.80;82.50;;;;;;4210436;33;20126;-92
2021/01/29 08:16:46;;;;;;;5.60;1.95;;;18.00;81.70;;;;;;4213423;34;20055;-89
2021/01/29 08:19:59;;;;;;;3.33;1.48;;;18.40;82.20;;;;;;4199735;34;20470;-90
2021/01/29 08:22:56;;;;;;;7.07;2.05;;;19.50;81.40;;;;;;4195057;34;20494;-88
2021/01/29 08:25:50;;;;;;;3.95;2.00;;;19.80;80.90;;;;;;4202067;34;20044;-91
2021/01/29 08:28:37;;;;;;;5.05;2.00;;;;;;;;;;4203713;34;20102;-92
2021/01/29 08:31:27;;;;;;;4.97;1.85;;;;;;;;;;4213258;34;20543;-88
2021/01/29 08:34:16;;;;;;;8.15;2.15;;;;;;;;;;4215460;33;20431;-90
2021/01/29 08:37:12;;;;;;;2.50;1.67;;;;;;;;;;4192670;34;20153;-92
2021/01/29 08:39:59;;;;;;;29.30;3.47;;;;;;;;;;4199443;34;20126;-89
2021/01/29 08:42:33;;;;;;;4.62;1.92;;;;;;;;;;4194153;33;20085;-89
2021/01/29 08:45:06;;;;;;;3.22;1.50;;;;;;;;;;4201301;34;20095;-91
2021/01/29 08:48:07;;;;;;;8.00;2.30;;;;;;;;;;4187969;34;20115;-91
2021/01/29 08:50:55;;;;;;;12.48;2.35;;;;;;;;;;4178748;34;20062;-89
2021/01/29 08:53:40;;;;;;;6.28;1.75;;;;;;;;;;4182856;33;20114;-88
2021/01/29 08:56:13;;;;;;;4.35;1.80;;;;;;;;;;4218836;34;20274;-90
2021/01/29 08:59:01;;;;;;;5.90;1.87;;;;;;;;;;4189144;34;20119;-89
2021/01/29 09:01:38;;;;;;;3.87;1.60;;;;;;;;;;4186238;34;20142;-88
2021/01/29 09:04:23;;;;;;;5.15;1.83;;;;;;;;;;4197002;33;20139;-89
2021/01/29 09:06:57;;;;;;;3.72;1.60;;;;;;;;;;4202296;34;20439;-87
2021/01/29 09:09:30;;;;;;;7.07;2.22;;;;;;;;;;4196169;34;20134;-86
2021/01/29 09:12:01;;;;;;;6.07;1.95;;;;;;;;;;4215715;34;20489;-89
2021/01/29 09:14:36;;;;;;;6.70;2.00;;;;;;;;;;4185730;34;20099;-90
2021/01/29 09:17:08;;;;;;;5.75;2.05;;;;;;;;;;4200219;34;20429;-88
2021/01/29 09:19:38;;;;;;;6.87;1.87;;;;;;;;;;4188504;34;20074;-90
2021/01/29 09:22:16;;;;;;;6.60;1.50;;;;;;;;;;4192347;34;20052;-90
2021/01/29 09:25:05;;;;;;;11.88;2.00;;;;;;;;;;4199931;34;20438;-89
2021/01/29 09:27:46;;;;;;;3.70;1.70;;;;;;;;;;4207012;34;20119;-91
2021/01/29 09:30:31;;;;;;;5.00;1.50;;;;;;;;;;4207310;34;20512;-87
2021/01/29 09:33:13;;;;;;;3.12;1.42;;;;;;;;;;4198526;34;20126;-88
2021/01/29 09:35:48;;;;;;;20.98;6.15;;;;;;;;;;4206361;34;20074;-91
2021/01/29 09:38:22;;;;;;;13.65;4.78;;;;;;;;;;4196770;34;20124;-88
2021/01/29 09:40:57;;;;;;;22.83;8.57;;;;;;;;;;4211405;34;20066;-89
2021/01/29 09:43:37;;;;;;;25.60;9.80;;;;;;;;;;4207858;33;20234;-90
2021/01/29 09:46:07;;;;;;;25.12;10.50;;;;;;;;;;4200924;34;20067;-92
2021/01/29 09:48:47;;;;;;;25.10;10.32;;;;;;;;;;4199654;34;20102;-87
2021/01/29 09:51:28;;;;;;;21.33;9.73;;;;;;;;;;4208662;34;20093;-87
2021/01/29 09:54:11;;;;;;;24.02;9.65;;;;;;;;;;4203306;34;20107;-90
2021/01/29 09:56:47;;;;;;;23.05;8.38;;;;;;;;;;4186495;34;20063;-92
2021/01/29 09:59:47;;;;;;;17.37;7.43;;;;;;;;;;4195233;34;20084;-88
2021/01/29 10:02:51;;;;;;;13.07;5.43;;;;;;;;;;4203518;34;20564;-89
2021/01/29 10:05:36;;;;;;;17.50;5.78;;;;;;;;;;4206299;34;20062;-92
2021/01/29 10:08:24;;;;;;;16.42;6.07;;;;;;;;;;4206309;34;20063;-91
2021/01/29 10:11:06;;;;;;;15.98;6.80;;;;;;;;;;4197414;34;20101;-90
2021/01/29 10:13:42;;;;;;;9.53;5.10;;;;;;;;;;4197771;34;20115;-88
2021/01/29 10:16:15;;;;;;;10.43;5.95;;;;;;;;;;4215570;34;20783;-90
2021/01/29 10:18:50;;;;;;;11.27;6.85;;;;;;;;;;4195458;34;20065;-89
2021/01/29 10:21:26;;;;;;;12.75;6.47;;;;;;;;;;4210149;34;20126;-87
2021/01/29 10:24:00;;;;;;;28.90;6.87;;;;;;;;;;4207688;34;20510;-88
2021/01/29 10:26:54;;;;;;;17.87;5.55;;;;;;;;;;4195747;34;20138;-89
2021/01/29 10:29:26;;;;;;;8.50;5.12;;;;;;;;;;4199545;33;20050;-87
2021/01/29 10:32:18;;;;;;;8.55;4.15;;;;;;;;;;4203723;34;20067;-91
2021/01/29 10:35:11;;;;;;;9.68;2.92;;;;;;;;;;4193458;34;20059;-91
2021/01/29 10:38:03;;;;;;;15.63;6.10;;;;;;;;;;4202418;34;20107;-88
2021/01/29 10:40:32;;;;;;;15.25;6.10;;;;;;;;;;4209774;34;20067;-87
2021/01/29 10:43:21;;;;;;;8.88;5.40;;;;;;;;;;4203029;34;20834;-88
2021/01/29 10:45:57;;;;;;;12.25;4.82;;;;;;;;;;4204726;34;20109;-90
2021/01/29 10:48:43;;;;;;;9.40;4.95;;;;;;;;;;4203721;34;20066;-89
2021/01/29 10:51:26;;;;;;;12.65;5.10;;;;;;;;;;4212782;34;20154;-89
2021/01/29 10:54:02;;;;;;;6.70;4.18;;;;;;;;;;4197957;34;20081;-88
2021/01/29 10:56:59;;;;;;;5.43;4.12;;;;;;;;;;4198479;34;20367;-90
2021/01/29 10:59:47;;;;;;;11.50;6.20;;;;;;;;;;4200761;34;20253;-89
2021/01/29 11:02:31;;;;;;;12.82;6.28;;;;;;;;;;4196441;34;20050;-89
2021/01/29 11:05:10;;;;;;;13.60;6.35;;;;;;;;;;4190307;34;20130;-91
2021/01/29 11:07:42;;;;;;;16.87;6.65;;;;;;;;;;4214004;34;20094;-90
2021/01/29 11:10:21;;;;;;;15.00;7.68;;;;;;;;;;4207968;34;20372;-88
2021/01/29 11:12:55;;;;;;;15.35;7.18;;;;;;;;;;4201728;34;20447;-89
2021/01/29 11:15:45;;;;;;;19.55;7.25;;;;;;;;;;4202549;34;20097;-92
2021/01/29 11:18:25;;;;;;;11.18;7.03;;;;;;;;;;4196399;34;20573;-90
2021/01/29 11:21:06;;;;;;;13.57;6.72;;;;;;;;;;4197092;34;20082;-90
2021/01/29 11:23:40;;;;;;;15.75;8.55;;;;;;;;;;4197341;33;20148;-91
2021/01/29 11:26:19;;;;;;;14.40;7.87;;;;;;;;;;4193475;34;20426;-89
2021/01/29 11:28:57;;;;;;;14.87;7.62;;;;;;;;;;4194158;34;20059;-88
2021/01/29 11:31:36;;;;;;;13.27;7.82;;;;;;;;;;4207232;34;20110;-91
2021/01/29 11:34:21;;;;;;;14.48;7.22;;;;;;;;;;4204272;34;20140;-89
2021/01/29 11:37:06;;;;;;;19.25;7.62;;;;;;;;;;4204832;34;20138;-91
2021/01/29 11:39:40;;;;;;;12.95;7.03;;;;;;;;;;4203868;34;20110;-91
2021/01/29 11:42:23;;;;;;;15.60;6.80;;;;;;;;;;4194721;34;20420;-90
2021/01/29 11:45:04;;;;;;;13.02;6.68;;;;;;;;;;4191820;34;20070;-92
2021/01/29 11:47:50;;;;;;;13.70;7.40;;;;;;;;;;4211286;34;20116;-92
2021/01/29 11:50:34;;;;;;;13.55;7.03;;;;;;;;;;4209009;34;20109;-90
2021/01/29 11:53:09;;;;;;;15.25;7.45;;;;;;;;;;4208858;34;20105;-88
2021/01/29 11:55:44;;;;;;;19.15;7.75;;;;;;;;;;4197417;34;20058;-88
2021/01/29 11:58:16;;;;;;;24.08;7.43;;;;;;;;;;4207658;34;20054;-89
2021/01/29 12:00:54;;;;;;;14.18;7.62;;;;;;;;;;4195601;34;20118;-90
2021/01/29 12:03:38;;;;;;;16.70;8.55;;;;;;;;;;4196844;33;20091;-88
2021/01/29 12:06:11;;;;;;;15.27;7.60;;;;;;;;;;4194827;34;20098;-88
2021/01/29 12:08:40;;;;;;;17.73;7.87;;;;;;;;;;4206304;34;20694;-89
2021/01/29 12:11:22;;;;;;;15.40;6.20;;;;;;;;;;4200857;34;20106;-89
2021/01/29 12:13:55;;;;;;;14.60;7.03;;;;;;;;;;4198812;34;20078;-87
2021/01/29 12:16:28;;;;;;;16.33;5.65;;;;;;;;;;4196842;34;20133;-88
2021/01/29 12:18:58;;;;;;;17.55;5.60;;;;;;;;;;4219949;34;20089;-88
2021/01/29 12:21:30;;;;;;;13.62;4.47;;;;;;;;;;4217095;33;20055;-89
2021/01/29 12:24:19;;;;;;;6.40;1.90;;;;;;;;;;4210453;34;20106;-87
2021/01/29 12:27:04;;;;;;;5.68;1.55;;;;;;;;;;4204330;34;20489;-88
2021/01/29 12:29:52;;;;;;;3.65;1.10;;;;;;;;;;4209200;34;20059;-87
2021/01/29 12:32:25;;;;;;;5.28;1.20;;;;;;;;;;4208526;34;20443;-86
2021/01/29 12:35:10;;;;;;;6.68;1.73;;;;;;;;;;4206212;33;20058;-87
2021/01/29 12:37:42;;;;;;;7.12;1.50;;;;;;;;;;4201575;34;20079;-91
2021/01/29 12:40:23;;;;;;;5.53;1.40;;;;;;;;;;4203414;34;20877;-91
2021/01/29 12:43:11;;;;;;;8.60;4.62;;;;;;;;;;4192105;34;20149;-89
2021/01/29 12:45:42;;;;;;;18.75;7.75;;;;;;;;;;4184763;34;20547;-88
2021/01/29 12:48:43;;;;;;;16.05;7.97;;;;;;;;;;4192746;34;20086;-87
2021/01/29 12:51:16;;;;;;;16.10;6.90;;;;;;;;;;4178408;34;20919;-87
2021/01/29 12:53:51;;;;;;;15.07;8.38;;;;;;;;;;4199444;34;20094;-85
2021/01/29 12:56:23;;;;;;;13.07;8.30;;;;;;;;;;4190361;34;20130;-87
2021/01/29 12:58:53;;;;;;;21.60;9.15;;;;;;;;;;4202597;34;20622;-87
2021/01/29 13:01:34;;;;;;;18.62;8.65;;;;;;;;;;4191959;34;20367;-87
2021/01/29 13:04:08;;;;;;;16.02;8.98;;;;;;;;;;4192781;34;20114;-88
2021/01/29 13:07:03;;;;;;;17.80;8.50;;;;;;;;;;4193720;33;20067;-86
2021/01/29 13:09:50;;;;;;;15.32;8.38;;;;;;;;;;4193284;34;20110;-86
2021/01/29 13:12:41;;;;;;;20.52;8.98;;;;;;;;;;4184254;34;20593;-87
2021/01/29 13:15:22;;;;;;;17.48;9.20;;;;;;;;;;4187589;34;20163;-87
2021/01/29 13:18:14;;;;;;;18.55;8.77;;;;;;;;;;4194022;34;20404;-86
2021/01/29 13:20:45;;;;;;;15.40;8.48;;;;;;;;;;4194183;34;20071;-87
2021/01/29 13:23:22;;;;;;;15.20;8.55;;;;;;;;;;4192093;34;20119;-87
2021/01/29 13:25:57;;;;;;;18.17;9.20;;;;;;;;;;4198887;34;20058;-87
2021/01/29 13:28:27;;;;;;;16.90;8.82;;;;;;;;;;4213628;34;20379;-88
2021/01/29 13:31:10;;;;;;;16.52;9.57;;;;;;;;;;4197617;34;20059;-87
2021/01/29 13:33:45;;;;;;;17.45;9.25;;;;;;;;;;4210553;33;20126;-90
2021/01/29 13:36:20;;;;;;;15.52;8.07;;;;;;;;;;4209986;34;20047;-89
2021/01/29 13:38:48;;;;;;;18.95;7.78;;;;;;;;;;4214135;34;20549;-90
2021/01/29 13:41:22;;;;;;;15.10;7.70;;;;;;;;;;4193348;34;20082;-90
2021/01/29 13:43:51;;;;;;;24.98;8.93;;;;;;;;;;4194373;34;22004;-88
2021/01/29 13:46:33;;;;;;;14.57;8.63;;;;;;;;;;4224311;33;20120;-88
2021/01/29 13:49:21;;;;;;;21.58;8.55;;;;;;;;;;4210963;34;20419;-90
2021/01/29 13:51:52;;;;;;;15.18;7.93;;;;;;;;;;4200707;34;20147;-90
2021/01/29 13:54:35;;;;;;;15.88;8.02;;;;;;;;;;4201606;34;20526;-89
2021/01/29 13:57:15;;;;;;;18.45;8.55;;;;;;;;;;4196902;34;20058;-90
2021/01/29 14:00:02;;;;;;;14.85;7.65;;;;;;;;;;4207385;34;20066;-90
2021/01/29 14:02:55;;;;;;;13.32;7.62;;;;;;;;;;4224019;34;20058;-91
2021/01/29 14:05:25;;;;;;;20.52;8.02;;;;;;;;;;4220322;33;20094;-90
2021/01/29 14:08:00;;;;;;;16.37;7.82;;;;;;;;;;4200227;34;20069;-89
2021/01/29 14:10:30;;;;;;;14.48;7.37;;;;;;;;;;4203648;34;20094;-90
2021/01/29 14:13:14;;;;;;;16.83;6.72;;;;;;;;;;4222181;34;20065;-89
2021/01/29 14:15:57;;;;;;;14.32;6.60;;;;;;;;;;4211535;34;20470;-88
2021/01/29 14:18:26;;;;;;;13.13;6.35;;;;;;;;;;4204244;33;20073;-89
2021/01/29 14:21:02;;;;;;;14.55;6.18;;;;;;;;;;4201954;34;20081;-89
2021/01/29 14:23:31;;;;;;;10.35;5.85;;;;;;;;;;4196583;33;20118;-88
2021/01/29 14:26:06;;;;;;;14.93;4.70;;;;;;;;;;4198717;34;20125;-89
2021/01/29 14:28:37;;;;;;;6.40;4.10;;;;;;;;;;4194818;34;20123;-91
2021/01/29 14:31:19;;;;;;;8.18;4.40;;;;;;;;;;4198117;34;20111;-89
2021/01/29 14:33:48;;;;;;;14.48;6.12;;;;;;;;;;4223728;33;20576;-89
2021/01/29 14:36:18;;;;;;;14.02;5.65;;;;;;;;;;4202820;34;20062;-89
2021/01/29 14:39:12;;;;;;;14.00;6.10;;;;;;;;;;4202375;34;20062;-89
2021/01/29 14:41:44;;;;;;;11.20;4.72;;;;;;;;;;4221894;34;20493;-90
2021/01/29 14:44:34;;;;;;;6.90;2.62;;;;;;;;;;4210026;34;20150;-88
2021/01/29 14:47:03;;;;;;;8.23;2.80;;;;;;;;;;4214525;34;20401;-90
2021/01/29 14:49:45;;;;;;;13.38;5.28;;;;;;;;;;4200236;34;20145;-89
2021/01/29 14:52:16;;;;;;;11.48;4.70;;;;;;;;;;4211039;34;20189;-89
2021/01/29 14:55:04;;;;;;;14.65;6.30;;;;;;;;;;4200162;34;20412;-87
2021/01/29 14:57:40;;;;;;;17.80;8.30;;;;;;;;;;4192429;34;20079;-92
2021/01/29 15:00:09;;;;;;;15.10;7.03;;;;;;;;;;4220848;33;20070;-87
2021/01/29 15:02:51;;;;;;;15.18;6.90;;;;;;;;;;4194624;34;20115;-90
2021/01/29 15:05:24;;;;;;;21.05;8.48;;;;;;;;;;4193590;34;20161;-89
2021/01/29 15:07:55;;;;;;;16.73;8.85;;;;;;;;;;4200157;34;20126;-89
2021/01/29 15:10:26;;;;;;;11.90;6.57;;;;;;;;;;4208962;34;20059;-90
2021/01/29 15:12:55;;;;;;;13.30;6.87;;;;;;;;;;4202461;34;20059;-87
2021/01/29 15:15:26;;;;;;;14.73;7.70;;;;;;;;;;4198677;34;20058;-88
2021/01/29 15:17:57;;;;;;;24.27;8.38;;;;;;;;;;4198335;34;20406;-87
2021/01/29 15:20:33;;;;;;;20.02;8.57;;;;;;;;;;4206950;34;20905;-89
2021/01/29 15:23:14;;;;;;;14.77;8.75;;;;;;;;;;4187953;34;20067;-89
2021/01/29 15:25:51;;;;;;;23.20;10.60;;;;;;;;;;4205435;34;20574;-87
2021/01/29 15:28:24;;;;;;;19.02;9.60;;;;;;;;;;4210456;33;20065;-87
2021/01/29 15:30:52;;;;;;;26.42;10.35;;;;;;;;;;4212967;34;20074;-90
2021/01/29 15:33:30;;;;;;;21.77;10.23;;;;;;;;;;4206890;34;20066;-90
2021/01/29 15:36:14;;;;;;;17.35;10.30;;;;;;;;;;4182193;34;20102;-88
2021/01/29 15:38:47;;;;;;;16.87;9.15;;;;;;;;;;4202775;34;20109;-90
2021/01/29 15:41:25;;;;;;;13.62;8.82;;;;;;;;;;4195868;34;20073;-89
2021/01/29 15:43:56;;;;;;;16.50;7.97;;;;;;;;;;4189351;34;20719;-88
2021/01/29 15:46:39;;;;;;;17.08;8.80;;;;;;;;;;4206042;34;20093;-88
2021/01/29 15:49:08;;;;;;;;;;;;;;;;;;4196193;34;20058;-88
2021/01/29 15:51:46;;;;;;;16.77;8.63;;;;;;;;;;4209916;34;20770;-91
2021/01/29 15:54:27;;;;;;;18.12;8.57;;;;;;;;;;4202808;34;20117;-92
2021/01/29 15:57:03;;;;;;;15.60;8.48;;;;;;;;;;4195584;34;20085;-91
2021/01/29 15:59:35;;;;;;;17.42;8.30;;;;;;;;;;4194421;34;20059;-91
2021/01/29 16:02:09;;;;;;;20.75;10.15;;;;;;;;;;4197866;34;20104;-89
2021/01/29 16:04:38;;;;;;;17.25;9.25;;;;;;;;;;4213859;33;20510;-88
2021/01/29 16:07:16;;;;;;;24.15;10.40;;;;;;;;;;4200880;34;20118;-89
2021/01/29 16:09:47;;;;;;;19.00;9.80;;;;;;;;;;4216743;33;20497;-88
2021/01/29 16:12:21;;;;;;;28.08;10.32;;;;;;;;;;4221690;33;20054;-88
2021/01/29 16:14:54;;;;;;;19.30;9.70;;;;;;;;;;4198935;34;20121;-89
2021/01/29 16:17:23;;;;;;;17.15;8.63;;;;;;;;;;4218597;34;20106;-88
2021/01/29 16:20:05;;;;;;;15.38;9.23;;;;;;;;;;4207380;34;20073;-90
2021/01/29 16:22:33;;;;;;;17.30;9.93;;;;;;;;;;4197268;34;20110;-88
2021/01/29 16:25:03;;;;;;;16.00;9.10;;;;;;;;;;4220681;33;20089;-89
2021/01/29 16:27:34;;;;;;;17.55;8.60;;;;;;;;;;4193168;34;20119;-90
2021/01/29 16:30:08;;;;;;;20.12;8.93;;;;;;;;;;4220063;34;20119;-90
2021/01/29 16:32:37;;;;;;;14.20;8.50;;;;;;;;;;4194858;34;20059;-90
2021/01/29 16:35:27;;;;;;;12.32;8.68;;;;;;;;;;4203200;34;20093;-88
2021/01/29 16:37:57;;;;;;;17.48;8.75;;;;;;;;;;4176015;34;20229;-87
2021/01/29 16:40:32;;;;;;;14.73;8.85;;;;;;;;;;4202689;34;20070;-89
2021/01/29 16:43:14;;;;;;;17.08;8.48;;;;;;;;;;4209215;34;20086;-91
2021/01/29 16:45:44;;;;;;;18.10;8.52;;;;;;;;;;4195610;34;20054;-89
2021/01/29 16:48:19;;;;;;;19.10;8.68;;;;;;;;;;4209205;34;20163;-88
2021/01/29 16:51:10;;;;;;;19.55;9.30;;;;;;;;;;4199042;34;20081;-91
2021/01/29 16:53:40;;;;;;;17.95;9.32;;;;;;;;;;4194992;33;20064;-87
2021/01/29 16:56:12;;;;;;;17.60;9.50;;;;;;;;;;4202221;34;20070;-89
2021/01/29 16:58:42;;;;;;;17.92;9.35;;;;;;;;;;4218964;33;20116;-90
2021/01/29 17:01:13;;;;;;;27.52;10.48;;;;;;;;;;4197871;34;20145;-88
2021/01/29 17:03:43;;;;;;;19.67;10.43;;;;;;;;;;4196726;33;20073;-87
2021/01/29 17:06:24;;;;;;;25.37;9.90;;;;;;;;;;4197480;34;20197;-89
2021/01/29 17:08:54;;;;;;;19.52;9.50;;;;;;;;;;4199463;34;20185;-89
2021/01/29 17:11:36;;;;;;;17.58;9.30;;;;;;;;;;4196285;34;20115;-88
2021/01/29 17:14:07;;;;;;;25.35;10.07;;;;;;;;;;4195698;34;20399;-89
2021/01/29 17:16:36;;;;;;;19.62;9.57;;;;;;;;;;4191595;34;20114;-88
2021/01/29 17:19:10;;;;;;;17.83;8.48;;;;;;;;;;4194726;34;20445;-88
2021/01/29 17:21:42;;;;;;;19.30;10.07;;;;;;;;;;4211833;34;20199;-89
2021/01/29 17:24:26;;;;;;;20.55;9.93;;;;;;;;;;4203929;34;20670;-91
2021/01/29 17:26:57;;;;;;;24.08;10.55;;;;;;;;;;4218422;33;20117;-89
2021/01/29 17:29:36;;;;;;;22.58;10.23;;;;;;;;;;4222709;34;20070;-86
2021/01/29 17:32:09;;;;;;;16.37;8.65;;;;;;;;;;4213776;34;20082;-89
2021/01/29 17:34:53;;;;;;;15.55;8.80;;;;;;;;;;4208083;34;20059;-89
2021/01/29 17:37:28;;;;;;;16.62;8.50;;;;;;;;;;4198145;34;20117;-89
2021/01/29 17:40:01;;;;;;;17.12;8.93;;;;;;;;;;4210562;34;20080;-90
2021/01/29 17:42:30;;;;;;;16.05;9.00;;;;;;;;;;4200691;34;20098;-89
2021/01/29 17:45:09;;;;;;;18.62;9.38;;;;;;;;;;4197245;34;20071;-93
2021/01/29 17:47:40;;;;;;;16.98;8.85;;;;;;;;;;4196934;34;20066;-88
2021/01/29 17:50:21;;;;;;;20.07;9.47;;;;;;;;;;4207675;34;20096;-90
2021/01/29 17:53:01;;;;;;;18.20;10.07;;;;;;;;;;4202119;34;20400;-87
2021/01/29 17:55:34;;;;;;;18.75;9.95;;;;;;;;;;4204539;34;20102;-91
2021/01/29 17:58:19;;;;;;;14.45;9.20;;;;;;;;;;4194154;34;20078;-91
2021/01/29 18:00:59;;;;;;;19.80;8.77;;;;;;;;;;4213046;34;20055;-89
2021/01/29 18:03:53;;;;;;;16.27;9.63;;;;;;;;;;4203046;33;20058;-89
2021/01/29 18:06:50;;;;;;;15.68;9.57;;;;;;;;;;4190752;34;20126;-89
2021/01/29 18:09:23;;;;;;;17.98;9.45;;;;;;;;;;4195672;34;20063;-88
2021/01/29 18:12:00;;;;;;;17.70;9.18;;;;;;;;;;4213374;34;20067;-91
2021/01/29 18:14:38;;;;;;;20.62;10.13;;;;;;;;;;4198578;34;20118;-89
2021/01/29 18:17:16;;;;;;;16.27;9.73;;;;;;;;;;4206118;34;20201;-90
2021/01/29 18:19:53;;;;;;;17.45;8.73;;;;;;;;;;4197286;34;20479;-89
2021/01/29 18:22:31;;;;;;;13.27;8.60;;;;;;;;;;4206342;34;20125;-90
2021/01/29 18:25:05;;;;;;;16.77;9.23;;;;;;;;;;4193378;34;20078;-89
2021/01/29 18:27:40;;;;;;;16.33;8.45;;;;;;;;;;4198235;34;20094;-89
2021/01/29 18:30:13;;;;;;;15.25;9.18;;;;;;;;;;4196957;34;20414;-89
2021/01/29 18:32:45;;;;;;;14.85;9.18;;;;;;;;;;4205053;33;20066;-89
2021/01/29 18:35:29;;;;;;;16.27;9.30;;;;;;;;;;4211875;34;20402;-90
2021/01/29 18:38:03;;;;;;;14.80;8.38;;;;;;;;;;4208694;34;20051;-89
2021/01/29 18:40:38;;;;;;;17.42;8.65;;;;;;;;;;4206628;34;20138;-89
2021/01/29 18:43:12;;;;;;;16.90;8.35;;;;;;;;;;4201867;34;20394;-89
2021/01/29 18:46:00;;;;;;;19.67;9.85;;;;;;;;;;4190477;34;20102;-88
2021/01/29 18:48:35;;;;;;;15.80;9.18;;;;;;;;;;4202957;34;20492;-90
2021/01/29 18:51:14;;;;;;;18.30;9.70;;;;;;;;;;4205264;34;20114;-91
2021/01/29 18:53:52;;;;;;;17.00;9.40;;;;;;;;;;4195804;34;20667;-89
2021/01/29 18:56:24;;;;;;;15.75;8.77;;;;;;;;;;4206413;33;20135;-91
2021/01/29 18:58:59;;;;;;;17.33;9.30;;;;;;;;;;4183945;34;20114;-91
2021/01/29 19:01:47;;;;;;;17.52;9.55;;;;;;;;;;4210501;34;20117;-88
2021/01/29 19:04:17;;;;;;;17.80;9.43;;;;;;;;;;4196130;34;20082;-88
2021/01/29 19:06:47;;;;;;;21.50;9.52;;;;;;;;;;4209346;33;20594;-90
2021/01/29 19:09:19;;;;;;;21.08;10.13;;;;;;;;;;4196850;34;20089;-89
2021/01/29 19:11:55;;;;;;;15.50;8.43;;;;;;;;;;4199696;34;20117;-89
2021/01/29 19:14:24;;;;;;;18.62;9.30;;;;;;;;;;4190653;34;20565;-89
2021/01/29 19:17:00;;;;;;;15.88;8.50;;;;;;;;;;4197143;34;22187;-91
2021/01/29 19:19:32;;;;;;;23.27;10.43;;;;;;;;;;4201600;33;20072;-90
2021/01/29 19:22:11;;;;;;;21.12;9.40;;;;;;;;;;4200088;34;20125;-91
2021/01/29 19:24:39;;;;;;;16.33;9.23;;;;;;;;;;4190724;34;20703;-89
2021/01/29 19:27:22;;;;;;;15.90;9.15;;;;;;;;;;4198768;34;20066;-90
2021/01/29 19:29:56;;;;;;;19.12;8.55;;;;;;;;;;4189222;34;20984;-89
2021/01/29 19:32:30;;;;;;;18.00;9.00;;;;;;;;;;4196910;34;20070;-89
2021/01/29 19:35:04;;;;;;;19.60;9.02;;;;;;;;;;4189718;34;20117;-89
2021/01/29 19:37:35;;;;;;;23.52;10.52;;;;;;;;;;4196816;34;20641;-88